Time;durP1;ratioP1;P1;durP2;ratioP2;P2;SDS_P1;SDS_P2;PMS_P1;PMS_P2;Temp;Humidity;BMP_temperature;BMP_pressure;BME280_temperature;BME280_humidity;BME280_pressure;Samples;Min_cycle;Max_cycle;Signal;HPM_P1;HPM_P2
2022/12/06 00:00:24;;;;;;;39.58;21.42;;;;;;;8.69;100.00;100897.25;5087477;28;20028;-32
2022/12/06 00:02:49;;;;;;;40.42;22.27;;;;;;;8.80;100.00;100907.38;5087504;28;20414;-30
2022/12/06 00:05:15;;;;;;;37.78;20.17;;;;;;;8.74;100.00;100912.63;5087286;28;20032;-36
2022/12/06 00:07:40;;;;;;;41.90;23.15;;;;;;;8.78;100.00;100906.75;5086982;28;20157;-33
2022/12/06 00:10:06;;;;;;;42.28;22.42;;;;;;;8.87;100.00;100918.13;5068599;28;20054;-35
2022/12/06 00:12:32;;;;;;;48.30;24.35;;;;;;;8.79;100.00;100913.72;5068742;28;20510;-33
2022/12/06 00:14:57;;;;;;;48.45;25.40;;;;;;;8.75;100.00;100898.34;5086985;28;20024;-30
2022/12/06 00:17:23;;;;;;;46.63;24.92;;;;;;;8.85;100.00;100899.69;5086863;28;20055;-30
2022/12/06 00:19:48;;;;;;;50.50;26.30;;;;;;;8.90;100.00;100909.75;5086967;28;20035;-32
2022/12/06 00:22:14;;;;;;;52.75;28.05;;;;;;;8.96;100.00;100916.19;5068878;28;20055;-29
2022/12/06 00:24:39;;;;;;;50.88;25.75;;;;;;;8.73;100.00;100911.81;5069124;28;20487;-31
2022/12/06 00:27:05;;;;;;;42.08;22.08;;;;;;;8.74;100.00;100913.44;5087285;28;20491;-34
2022/12/06 00:29:31;;;;;;;39.53;20.70;;;;;;;9.04;100.00;100908.06;5086834;28;20047;-29
2022/12/06 00:31:56;;;;;;;44.78;24.02;;;;;;;8.95;100.00;100909.19;5083679;28;20784;-30
2022/12/06 00:34:22;;;;;;;53.53;26.88;;;;;;;9.02;100.00;100907.44;5067997;28;20077;-35
2022/12/06 00:36:47;;;;;;;45.20;24.13;;;;;;;9.02;100.00;100899.47;5086126;28;20097;-29
2022/12/06 00:39:15;;;;;;;41.75;22.70;;;;;;;9.09;100.00;100913.66;5086223;28;20111;-31
2022/12/06 00:41:41;;;;;;;44.70;24.33;;;;;;;8.95;100.00;100895.88;5086167;28;20028;-30
2022/12/06 00:44:08;;;;;;;43.33;23.00;;;;;;;8.92;100.00;100904.25;5086231;28;20085;-32
2022/12/06 00:46:34;;;;;;;36.38;20.05;;;;;;;8.81;100.00;100892.28;5067602;28;20028;-29
2022/12/06 00:49:02;;;;;;;36.53;19.05;;;;;;;9.23;100.00;100909.28;5067969;28;20028;-32
2022/12/06 00:51:29;;;;;;;33.33;18.88;;;;;;;9.09;100.00;100892.34;5086586;28;20028;-30
2022/12/06 00:53:54;;;;;;;34.70;19.30;;;;;;;9.22;100.00;100905.81;5068082;28;20035;-31
2022/12/06 00:56:20;;;;;;;34.30;18.45;;;;;;;9.05;99.96;100904.38;5068722;28;20032;-29
2022/12/06 00:58:46;;;;;;;39.25;19.48;;;;;;;8.65;100.00;100880.84;5086594;28;20495;-36
2022/12/06 01:01:15;;;;;;;40.15;20.58;;;;;;;8.79;100.00;100897.78;5068042;28;20519;-36
2022/12/06 01:03:41;;;;;;;;;;;;;;;8.80;100.00;100898.59;5086679;28;20110;-31
2022/12/06 01:06:09;;;;;;;38.30;19.45;;;;;;;8.84;100.00;100889.22;5086307;28;20002;-31
2022/12/06 01:08:35;;;;;;;36.70;19.05;;;;;;;8.71;100.00;100897.88;5086414;28;20028;-29
2022/12/06 01:11:01;;;;;;;37.95;20.13;;;;;;;8.51;100.00;100891.50;5086879;28;20043;-32
2022/12/06 01:13:27;;;;;;;38.38;19.58;;;;;;;8.54;100.00;100896.44;5068094;28;20036;-30
2022/12/06 01:15:53;;;;;;;39.78;21.30;;;;;;;8.57;100.00;100893.41;5086107;28;20118;-29
2022/12/06 01:18:20;;;;;;;43.38;23.50;;;;;;;8.52;100.00;100866.53;5064242;28;20062;-28
2022/12/06 01:20:45;;;;;;;46.13;23.83;;;;;;;8.59;100.00;100883.41;5064516;28;20901;-30
2022/12/06 01:23:11;;;;;;;46.70;22.23;;;;;;;8.49;100.00;100874.91;5065803;28;20040;-30
2022/12/06 01:25:37;;;;;;;47.83;23.25;;;;;;;8.51;100.00;100871.03;5065881;28;20032;-30
2022/12/06 01:28:03;;;;;;;45.22;24.35;;;;;;;8.49;100.00;100864.28;5064187;28;20039;-30
2022/12/06 01:30:28;;;;;;;41.65;22.23;;;;;;;8.42;100.00;100858.88;5065802;28;20463;-29
2022/12/06 01:32:54;;;;;;;40.75;22.38;;;;;;;8.53;100.00;100868.22;5065602;28;20115;-29
2022/12/06 01:35:19;;;;;;;49.08;26.33;;;;;;;8.60;100.00;100853.16;5064388;28;20030;-29
2022/12/06 01:37:45;;;;;;;43.88;25.48;;;;;;;8.43;100.00;100836.59;5064227;28;20037;-31
2022/12/06 01:40:11;;;;;;;44.28;22.80;;;;;;;8.41;100.00;100852.72;5066011;28;20035;-31
2022/12/06 01:42:37;;;;;;;48.13;24.73;;;;;;;8.57;100.00;100854.34;5064304;28;20056;-29
2022/12/06 01:45:03;;;;;;;46.40;25.15;;;;;;;8.61;100.00;100855.63;5065778;28;20107;-28
2022/12/06 01:47:41;;;;;;;49.50;25.13;;;;;;;8.64;100.00;100849.94;5063802;28;20036;-33
2022/12/06 01:50:22;;;;;;;48.58;24.10;;;;;;;8.42;100.00;100827.81;5064278;28;20027;-34
2022/12/06 01:52:47;;;;;;;45.47;24.38;;;;;;;8.56;100.00;100851.88;5065729;28;20040;-29
2022/12/06 01:55:15;;;;;;;43.95;24.20;;;;;;;8.43;100.00;100829.44;5065637;28;20746;-30
2022/12/06 01:57:40;;;;;;;52.03;26.98;;;;;;;8.67;100.00;100847.94;5065455;28;20113;-30
2022/12/06 02:00:07;;;;;;;48.90;24.30;;;;;;;8.80;100.00;100837.41;5068445;28;20037;-29
2022/12/06 02:02:32;;;;;;;50.35;24.63;;;;;;;8.74;100.00;100844.31;5068484;28;20170;-31
2022/12/06 02:04:59;;;;;;;41.67;21.58;;;;;;;8.81;100.00;100834.59;5069622;28;20455;-33
2022/12/06 02:07:28;;;;;;;50.03;23.73;;;;;;;8.88;100.00;100841.81;5068095;28;20024;-34
2022/12/06 02:09:55;;;;;;;41.60;20.77;;;;;;;8.68;100.00;100839.75;5067713;28;20031;-30
2022/12/06 02:12:21;;;;;;;40.40;20.85;;;;;;;8.60;100.00;100843.34;5067960;28;20101;-29
2022/12/06 02:14:49;;;;;;;41.30;20.40;;;;;;;8.57;100.00;100842.91;5069847;28;20044;-30
2022/12/06 02:17:17;;;;;;;43.33;21.55;;;;;;;8.71;100.00;100834.06;5067350;28;20761;-29
2022/12/06 02:20:01;;;;;;;;;;;;;;;8.56;100.00;100833.25;5069461;28;20102;-32
2022/12/06 02:22:50;;;;;;;39.28;20.10;;;;;;;8.84;100.00;100844.81;5069268;28;19920;-30
2022/12/06 02:25:46;;;;;;;42.88;22.08;;;;;;;8.69;100.00;100846.72;5069313;28;20042;-29
2022/12/06 02:28:37;;;;;;;44.85;21.45;;;;;;;8.56;100.00;100839.41;5069378;28;20040;-30
2022/12/06 02:31:44;;;;;;;43.95;22.73;;;;;;;8.51;100.00;100838.31;5069477;28;20036;-28
2022/12/06 02:34:17;;;;;;;40.38;20.25;;;;;;;8.45;100.00;100835.38;5057753;28;20032;-32
2022/12/06 02:36:54;;;;;;;40.28;19.70;;;;;;;8.60;100.00;100834.53;5067855;28;20047;-29
2022/12/06 02:39:37;;;;;;;44.45;21.00;;;;;;;8.66;100.00;100839.09;5067756;28;20033;-28
2022/12/06 02:42:08;;;;;;;44.90;23.17;;;;;;;8.54;100.00;100833.47;5069186;28;20548;-35
2022/12/06 02:44:43;;;;;;;41.10;20.33;;;;;;;8.32;100.00;100807.81;5068922;28;20029;-36
2022/12/06 02:47:11;;;;;;;40.65;21.65;;;;;;;8.60;100.00;100807.94;5068860;28;20081;-33
2022/12/06 02:49:43;;;;;;;40.55;20.83;;;;;;;8.57;100.00;100811.00;5067372;28;20032;-32
2022/12/06 02:52:11;;;;;;;45.88;22.13;;;;;;;8.62;100.00;100829.84;5067338;28;20090;-31
2022/12/06 02:54:37;;;;;;;42.65;22.25;;;;;;;8.42;100.00;100825.16;5069138;28;20024;-31
2022/12/06 02:57:02;;;;;;;45.28;22.42;;;;;;;8.34;100.00;100817.25;5067339;28;20064;-31
2022/12/06 02:59:28;;;;;;;38.40;20.88;;;;;;;8.32;100.00;100813.94;5068517;28;20129;-32
2022/12/06 03:01:57;;;;;;;46.20;21.40;;;;;;;8.40;100.00;100832.44;5066836;28;20035;-30
2022/12/06 03:04:51;;;;;;;43.88;21.73;;;;;;;8.42;100.00;100835.78;5067213;28;20120;-30
2022/12/06 03:07:43;;;;;;;41.08;21.83;;;;;;;8.42;100.00;100830.47;5067137;28;20036;-29
2022/12/06 03:10:49;;;;;;;39.47;20.30;;;;;;;8.61;100.00;100833.53;5068283;28;20403;-30
2022/12/06 03:13:26;;;;;;;42.08;21.27;;;;;;;8.56;100.00;100833.25;5067235;28;20025;-31
2022/12/06 03:16:04;;;;;;;39.28;20.42;;;;;;;8.58;100.00;100837.41;5067017;28;20037;-33
2022/12/06 03:18:53;;;;;;;37.67;19.45;;;;;;;8.65;100.00;100829.50;5066537;28;20780;-29
2022/12/06 03:21:25;;;;;;;43.53;20.92;;;;;;;8.73;100.00;100832.03;5068132;28;20105;-35
2022/12/06 03:23:50;;;;;;;46.05;21.92;;;;;;;8.56;100.00;100838.56;5066713;28;20484;-29
2022/12/06 03:26:22;;;;;;;40.13;21.20;;;;;;;8.63;100.00;100836.84;5068448;28;20035;-31
2022/12/06 03:28:50;;;;;;;42.67;21.83;;;;;;;8.63;100.00;100847.47;5066652;28;20029;-29
2022/12/06 03:31:16;;;;;;;43.60;21.00;;;;;;;8.69;100.00;100841.41;5067927;28;20563;-31
2022/12/06 03:33:52;;;;;;;46.70;22.75;;;;;;;8.52;100.00;100839.97;5067687;28;20090;-30
2022/12/06 03:36:18;;;;;;;47.95;21.42;;;;;;;8.54;100.00;100822.84;5068128;28;20020;-29
2022/12/06 03:39:02;;;;;;;48.45;22.45;;;;;;;8.88;100.00;100834.66;5067901;28;20044;-32
2022/12/06 03:41:33;;;;;;;43.75;21.33;;;;;;;8.92;100.00;100835.91;5068002;28;20032;-32
2022/12/06 03:43:59;;;;;;;47.38;21.40;;;;;;;8.71;100.00;100806.66;5067919;28;20055;-33
2022/12/06 03:46:33;;;;;;;49.08;22.02;;;;;;;8.64;100.00;100814.53;5068021;28;20814;-29
2022/12/06 03:49:10;;;;;;;42.13;20.00;;;;;;;8.51;100.00;100806.44;5067825;28;20036;-31
2022/12/06 03:51:38;;;;;;;46.47;20.93;;;;;;;8.50;100.00;100818.06;5067826;28;20408;-31
2022/12/06 03:54:06;;;;;;;46.00;19.73;;;;;;;8.55;100.00;100832.44;5067511;28;20263;-32
2022/12/06 03:56:35;;;;;;;44.45;20.40;;;;;;;8.62;100.00;100838.69;5066273;28;20042;-29
2022/12/06 03:59:10;;;;;;;45.97;20.77;;;;;;;8.67;100.00;100824.81;5066199;28;20029;-28
2022/12/06 04:01:37;;;;;;;45.58;20.20;;;;;;;8.45;100.00;100819.44;5067448;28;20132;-38
2022/12/06 04:04:03;;;;;;;44.33;20.13;;;;;;;8.35;100.00;100813.56;5067210;28;20024;-30
2022/12/06 04:06:28;;;;;;;43.42;20.15;;;;;;;8.39;100.00;100820.16;5067466;28;20041;-29
2022/12/06 04:09:50;;;;;;;49.30;22.77;;;;;;;8.69;100.00;100821.97;5065827;28;20044;-34
2022/12/06 04:11:39;;;;;;;44.90;19.90;;;;;;;8.53;100.00;100799.91;5067129;28;20052;-35
2022/12/06 04:14:04;;;;;;;50.70;21.45;;;;;;;8.52;100.00;100813.38;5067184;28;20842;-31
2022/12/06 04:19:14;;;;;;;45.55;21.48;;;;;;;8.62;100.00;100813.91;5086954;28;20051;-34
2022/12/06 04:24:23;;;;;;;41.63;20.98;;;;;;;8.42;100.00;100811.03;5087193;28;20050;-31
2022/12/06 04:26:48;;;;;;;47.88;21.90;;;;;;;8.53;100.00;100818.50;5087236;28;20032;-33
2022/12/06 04:40:10;;;;;;;45.45;22.30;;;;;;;8.27;100.00;100810.19;5087030;28;20109;-31
2022/12/06 04:45:19;;;;;;;60.03;29.20;;;;;;;8.45;100.00;100818.63;5086926;28;20027;-30
2022/12/06 04:47:45;;;;;;;61.15;30.00;;;;;;;8.31;100.00;100790.22;5086523;28;20057;-31
2022/12/06 04:50:10;;;;;;;60.83;32.05;;;;;;;8.25;100.00;100797.06;5086829;28;20043;-29
2022/12/06 04:52:35;;;;;;;60.15;28.27;;;;;;;8.43;100.00;100824.13;5086846;28;20077;-29
2022/12/06 04:55:01;;;;;;;60.45;31.38;;;;;;;8.54;100.00;100806.03;5068128;28;20028;-33
2022/12/06 04:57:27;;;;;;;60.20;31.10;;;;;;;8.60;100.00;100811.44;5068376;28;20439;-31
2022/12/06 04:59:52;;;;;;;53.65;28.98;;;;;;;8.60;100.00;100818.56;5086287;28;20024;-31
2022/12/06 05:02:17;;;;;;;53.00;28.50;;;;;;;8.55;100.00;100810.34;5068318;28;20403;-31
2022/12/06 05:04:43;;;;;;;50.40;27.35;;;;;;;8.56;100.00;100819.97;5068263;28;20511;-32
2022/12/06 05:07:10;;;;;;;55.13;28.50;;;;;;;8.58;100.00;100812.63;5086653;28;20411;-33
2022/12/06 05:09:35;;;;;;;58.58;29.05;;;;;;;8.45;100.00;100797.34;5067786;28;20048;-34
2022/12/06 05:12:01;;;;;;;56.38;28.73;;;;;;;8.64;100.00;100823.34;5086747;28;20793;-33
2022/12/06 05:14:26;;;;;;;56.60;27.45;;;;;;;8.39;100.00;100804.19;5068103;28;20032;-33
2022/12/06 05:16:52;;;;;;;50.67;28.40;;;;;;;8.29;100.00;100786.91;5064251;28;20119;-32
2022/12/06 05:19:17;;;;;;;48.33;25.35;;;;;;;8.51;100.00;100815.22;5065832;28;20389;-30
2022/12/06 05:21:43;;;;;;;49.67;24.70;;;;;;;8.63;100.00;100812.91;5064340;28;20101;-34
2022/12/06 05:24:08;;;;;;;61.90;31.10;;;;;;;8.34;100.00;100821.75;5064365;28;20416;-29
2022/12/06 05:26:34;;;;;;;57.88;28.90;;;;;;;8.26;100.00;100814.69;5064551;28;20029;-30
2022/12/06 05:29:00;;;;;;;55.10;28.27;;;;;;;8.35;100.00;100826.84;5064618;28;20032;-33
2022/12/06 05:31:26;;;;;;;50.50;24.65;;;;;;;8.30;100.00;100809.84;5065907;28;20086;-28
2022/12/06 05:33:52;;;;;;;48.58;25.15;;;;;;;8.24;100.00;100812.22;5063301;28;20016;-29
2022/12/06 05:36:20;;;;;;;47.72;23.17;;;;;;;8.51;100.00;100822.38;5064380;28;20032;-31
2022/12/06 05:38:47;;;;;;;45.15;23.50;;;;;;;8.47;100.00;100816.59;5065456;28;20032;-34
2022/12/06 05:41:13;;;;;;;49.50;23.65;;;;;;;8.39;100.00;100804.19;5065998;28;20135;-30
2022/12/06 05:43:39;;;;;;;50.00;25.00;;;;;;;8.54;100.00;100811.34;5065630;28;20032;-32
2022/12/06 05:46:05;;;;;;;48.55;22.77;;;;;;;8.62;100.00;100796.13;5065692;28;20028;-31
2022/12/06 05:48:30;;;;;;;49.30;24.17;;;;;;;8.55;100.00;100797.88;5064336;28;20119;-28
2022/12/06 05:50:55;;;;;;;53.22;24.58;;;;;;;8.60;100.00;100808.78;5065801;28;20036;-34
2022/12/06 05:53:21;;;;;;;52.33;24.65;;;;;;;8.44;100.00;100787.75;5063847;28;20033;-29
2022/12/06 05:55:47;;;;;;;50.88;24.42;;;;;;;8.45;100.00;100808.81;5065642;28;20045;-31
2022/12/06 05:58:14;;;;;;;51.45;23.83;;;;;;;8.51;100.00;100822.38;5064596;28;20123;-31
2022/12/06 06:00:39;;;;;;;48.65;22.88;;;;;;;8.57;100.00;100816.31;5065560;28;20035;-30
2022/12/06 06:03:05;;;;;;;50.00;25.65;;;;;;;8.70;100.00;100811.13;5065760;28;20021;-29
2022/12/06 06:05:30;;;;;;;52.05;24.38;;;;;;;8.50;100.00;100805.59;5065393;28;20119;-33
2022/12/06 06:07:56;;;;;;;56.58;26.08;;;;;;;8.36;100.00;100830.34;5065508;28;20086;-30
2022/12/06 06:10:22;;;;;;;49.30;25.15;;;;;;;8.54;100.00;100829.97;5064116;28;20038;-31
2022/12/06 06:12:48;;;;;;;54.88;25.80;;;;;;;8.68;100.00;100818.47;5065548;28;20531;-32
2022/12/06 06:15:14;;;;;;;54.53;25.08;;;;;;;8.78;100.00;100832.28;5065519;28;20035;-30
2022/12/06 06:17:41;;;;;;;58.10;25.88;;;;;;;8.79;100.00;100833.94;5063421;28;20055;-29
2022/12/06 06:20:09;;;;;;;52.10;24.98;;;;;;;8.71;100.00;100831.41;5063881;28;20033;-30
2022/12/06 06:22:37;;;;;;;68.70;30.55;;;;;;;8.66;100.00;100828.47;5063852;28;20040;-37
2022/12/06 06:25:04;;;;;;;62.25;29.65;;;;;;;8.60;100.00;100834.53;5064174;28;20178;-30
2022/12/06 06:27:32;;;;;;;57.00;27.27;;;;;;;8.69;100.00;100841.41;5065467;28;20032;-28
2022/12/06 06:29:58;;;;;;;56.03;26.00;;;;;;;8.61;100.00;100849.50;5065388;28;20025;-32
2022/12/06 06:32:23;;;;;;;53.47;27.67;;;;;;;8.53;100.00;100831.00;5065362;28;20477;-29
2022/12/06 06:34:49;;;;;;;61.85;28.52;;;;;;;8.60;100.00;100837.19;5063861;28;20036;-33
2022/12/06 06:37:14;;;;;;;65.28;31.83;;;;;;;8.45;100.00;100824.75;5063443;28;20028;-30
2022/12/06 06:39:39;;;;;;;64.53;31.67;;;;;;;8.37;100.00;100824.81;5063505;28;20032;-31
2022/12/06 06:42:05;;;;;;;65.80;32.40;;;;;;;8.31;100.00;100825.56;5065194;28;20028;-30
2022/12/06 06:44:31;;;;;;;56.58;27.92;;;;;;;8.44;100.00;100831.09;5065458;28;20020;-29
2022/12/06 06:46:57;;;;;;;53.45;27.20;;;;;;;8.54;100.00;100832.63;5067473;28;20029;-29
2022/12/06 06:49:23;;;;;;;60.20;28.40;;;;;;;8.56;100.00;100828.78;5068912;28;20040;-31
2022/12/06 06:51:49;;;;;;;53.83;27.85;;;;;;;8.63;100.00;100823.53;5067149;28;20081;-32
2022/12/06 06:54:15;;;;;;;62.75;28.35;;;;;;;8.50;100.00;100804.75;5067299;28;20123;-33
2022/12/06 06:56:40;;;;;;;49.90;26.52;;;;;;;8.75;100.00;100821.22;5067410;28;20465;-29
2022/12/06 06:59:06;;;;;;;56.33;28.23;;;;;;;8.73;100.00;100824.06;5067226;28;20238;-29
2022/12/06 07:01:31;;;;;;;55.38;26.77;;;;;;;8.85;100.00;100824.41;5067035;28;20818;-30
2022/12/06 07:03:57;;;;;;;52.03;27.38;;;;;;;8.92;100.00;100819.13;5068255;28;20082;-38
2022/12/06 07:06:23;;;;;;;50.45;24.70;;;;;;;8.80;100.00;100816.97;5067175;28;20031;-36
2022/12/06 07:08:48;;;;;;;53.45;24.75;;;;;;;8.81;100.00;100810.66;5067196;28;20063;-29
2022/12/06 07:11:14;;;;;;;49.95;25.77;;;;;;;8.71;100.00;100812.78;5068383;28;20049;-34
2022/12/06 07:13:41;;;;;;;50.15;23.92;;;;;;;8.81;100.00;100818.63;5068483;28;20115;-31
2022/12/06 07:16:11;;;;;;;50.67;24.90;;;;;;;8.87;100.00;100829.50;5068217;28;20047;-29
2022/12/06 07:18:36;;;;;;;50.40;24.35;;;;;;;8.99;100.00;100830.66;5087210;28;20048;-32
2022/12/06 07:21:06;;;;;;;48.53;24.42;;;;;;;8.95;100.00;100824.06;5088487;28;20445;-34
2022/12/06 07:23:34;;;;;;;49.17;24.05;;;;;;;8.96;100.00;100825.72;5088775;28;20043;-33
2022/12/06 07:26:05;;;;;;;55.22;27.17;;;;;;;9.15;100.00;100824.25;5069780;28;20024;-32
2022/12/06 07:28:34;;;;;;;55.83;27.60;;;;;;;9.15;100.00;100816.28;5088450;28;20039;-32
2022/12/06 07:31:21;;;;;;;52.47;26.52;;;;;;;9.20;100.00;100828.00;5069946;28;20036;-35
2022/12/06 07:33:50;;;;;;;57.03;28.87;;;;;;;8.98;100.00;100823.69;5069867;28;20032;-34
2022/12/06 07:36:16;;;;;;;51.85;27.42;;;;;;;9.04;100.00;100817.63;5088049;28;21171;-30
2022/12/06 07:38:45;;;;;;;53.65;27.80;;;;;;;9.13;100.00;100816.47;5088283;28;20043;-29
2022/12/06 07:46:42;;;;;;;50.85;26.77;;;;;;;9.15;100.00;100814.44;5088344;28;20566;-30
2022/12/06 07:49:08;;;;;;;55.47;27.40;;;;;;;9.34;100.00;100822.81;5069749;28;20535;-30
2022/12/06 07:51:33;;;;;;;64.72;36.78;;;;;;;9.18;100.00;100816.72;5069522;28;20416;-32
2022/12/06 07:53:59;;;;;;;83.13;59.45;;;;;;;9.26;100.00;100821.09;5087637;28;20483;-33
2022/12/06 07:56:25;;;;;;;65.32;36.50;;;;;;;9.17;100.00;100807.09;5087060;28;20036;-29
2022/12/06 07:58:51;;;;;;;65.70;34.75;;;;;;;9.40;100.00;100816.72;5088298;28;20035;-37
2022/12/06 08:01:17;;;;;;;58.03;30.20;;;;;;;9.30;100.00;100806.38;5087433;28;20473;-30
2022/12/06 08:03:42;;;;;;;57.58;35.20;;;;;;;9.58;99.05;100825.06;5069269;28;20035;-30
2022/12/06 08:06:08;;;;;;;56.40;29.83;;;;;;;9.60;98.88;100820.34;5087333;28;20028;-35
2022/12/06 08:08:34;;;;;;;88.07;68.20;;;;;;;9.64;96.14;100808.28;5087478;28;20032;-29
2022/12/06 08:11:06;;;;;;;119.72;90.32;;;;;;;9.70;95.79;100805.84;5087647;28;20410;-32
2022/12/06 08:13:32;;;;;;;132.27;96.90;;;;;;;9.86;95.99;100818.88;5068926;28;20032;-30
2022/12/06 08:15:57;;;;;;;120.30;87.00;;;;;;;10.05;95.32;100812.00;5069031;28;20404;-29
2022/12/06 08:18:24;;;;;;;67.03;49.00;;;;;;;9.87;95.27;100791.22;5068716;28;20048;-33
2022/12/06 08:20:49;;;;;;;99.07;67.22;;;;;;;9.99;96.04;100808.31;5069082;28;20032;-31
2022/12/06 08:23:15;;;;;;;56.38;30.75;;;;;;;9.92;97.42;100811.94;5087074;28;20039;-31
2022/12/06 08:25:40;;;;;;;44.78;24.73;;;;;;;9.84;96.66;100805.75;5087256;28;20162;-30
2022/12/06 08:28:06;;;;;;;47.83;27.10;;;;;;;9.95;95.78;100814.19;5087451;28;20904;-31
2022/12/06 08:30:31;;;;;;;44.42;19.35;;;;;;;10.03;95.88;100806.03;5087230;28;20028;-30
2022/12/06 08:32:57;;;;;;;46.35;20.45;;;;;;;9.99;97.37;100805.63;5087271;28;20043;-33
2022/12/06 08:35:22;;;;;;;41.38;18.23;;;;;;;9.90;97.27;100806.81;5086914;28;20024;-30
2022/12/06 08:37:47;;;;;;;39.83;19.33;;;;;;;9.94;97.38;100802.72;5086993;28;20050;-31
2022/12/06 08:40:13;;;;;;;40.75;18.83;;;;;;;9.92;97.80;100799.44;5087103;28;20024;-33
2022/12/06 08:42:40;;;;;;;39.35;17.48;;;;;;;9.93;97.20;100801.09;5068772;28;20039;-29
2022/12/06 08:45:07;;;;;;;32.50;14.03;;;;;;;10.12;95.70;100783.56;5086956;28;20023;-29
2022/12/06 08:47:32;;;;;;;33.38;16.67;;;;;;;9.97;96.87;100789.03;5086878;28;20089;-30
2022/12/06 08:49:57;;;;;;;33.67;15.30;;;;;;;9.91;98.41;100765.00;5086722;28;20932;-29
2022/12/06 08:52:23;;;;;;;123.43;89.25;;;;;;;10.03;98.33;100790.91;5086518;28;20099;-34
2022/12/06 08:54:49;;;;;;;39.60;19.77;;;;;;;10.03;97.07;100766.91;5068676;28;20445;-33
2022/12/06 08:57:14;;;;;;;38.45;20.83;;;;;;;10.02;97.28;100770.59;5086237;28;20028;-29
2022/12/06 08:59:40;;;;;;;37.47;21.00;;;;;;;10.02;97.20;100745.78;5067909;28;20569;-29
2022/12/06 09:02:06;;;;;;;40.63;26.25;;;;;;;10.19;95.53;100768.41;5086416;28;20020;-31
2022/12/06 09:04:31;;;;;;;35.30;17.48;;;;;;;10.19;93.85;100740.94;5086530;28;20036;-31
2022/12/06 09:06:57;;;;;;;34.88;18.70;;;;;;;10.19;95.64;100767.59;5068139;28;20028;-30
2022/12/06 09:09:22;;;;;;;43.53;31.17;;;;;;;10.12;96.00;100753.44;5086404;28;20036;-36
2022/12/06 09:11:48;;;;;;;69.93;48.25;;;;;;;10.21;96.09;100760.22;5086450;28;20178;-35
2022/12/06 09:14:16;;;;;;;35.75;16.05;;;;;;;10.26;92.70;100765.78;5067881;28;20113;-29
2022/12/06 09:16:43;;;;;;;168.97;98.80;;;;;;;10.30;93.73;100748.41;5068096;28;20260;-29
2022/12/06 09:19:12;;;;;;;39.35;21.33;;;;;;;10.14;92.80;100727.41;5067864;28;20040;-30
2022/12/06 09:21:41;;;;;;;36.78;19.33;;;;;;;10.27;93.75;100722.09;5086069;28;20101;-43
2022/12/06 09:24:11;;;;;;;38.10;18.38;;;;;;;10.16;93.29;100741.34;5068047;28;20031;-32
2022/12/06 09:26:36;;;;;;;40.38;19.67;;;;;;;10.10;94.41;100736.81;5067945;28;20529;-29
2022/12/06 09:29:02;;;;;;;41.45;19.80;;;;;;;10.37;93.28;100733.22;5067651;28;20032;-30
2022/12/06 09:31:27;;;;;;;46.75;24.30;;;;;;;10.77;93.78;100735.97;5067883;28;20024;-31
2022/12/06 09:33:53;;;;;;;42.88;19.02;;;;;;;10.50;92.82;100736.94;5085866;28;20140;-34
2022/12/06 09:36:25;;;;;;;109.82;57.70;;;;;;;10.50;94.29;100727.13;5067687;28;20020;-31
2022/12/06 09:39:08;;;;;;;93.22;46.72;;;;;;;10.80;92.35;100722.22;5086009;28;20032;-30
2022/12/06 09:42:07;;;;;;;43.50;20.05;;;;;;;10.37;92.59;100722.56;5085958;28;20027;-34
2022/12/06 09:44:47;;;;;;;39.05;18.23;;;;;;;10.32;93.96;100719.69;5067386;28;20106;-29
2022/12/06 09:47:39;;;;;;;40.38;18.58;;;;;;;10.43;92.88;100719.09;5086205;28;20035;-31
2022/12/06 09:50:23;;;;;;;43.35;18.52;;;;;;;10.54;93.28;100706.19;5039329;28;20048;-33
2022/12/06 09:53:20;;;;;;;38.47;19.25;;;;;;;10.58;92.40;100712.75;5085979;28;20028;-33
2022/12/06 09:56:22;;;;;;;38.67;17.53;;;;;;;10.51;92.98;100702.09;5085754;28;20028;-32
2022/12/06 09:59:15;;;;;;;44.30;19.52;;;;;;;10.67;93.33;100694.72;5067452;28;20032;-31
2022/12/06 10:02:09;;;;;;;31.83;15.50;;;;;;;10.60;92.93;100694.69;5085660;28;20059;-30
2022/12/06 10:04:41;;;;;;;33.50;16.73;;;;;;;10.72;92.48;100693.06;5085697;28;20088;-31
2022/12/06 10:07:31;;;;;;;40.70;22.88;;;;;;;10.64;92.77;100682.59;5085816;28;20028;-31
2022/12/06 10:10:03;;;;;;;33.90;17.55;;;;;;;10.82;92.91;100688.16;5067344;28;20535;-33
2022/12/06 10:12:37;;;;;;;32.83;16.15;;;;;;;10.80;91.83;100684.88;5067485;28;20066;-30
2022/12/06 10:15:09;;;;;;;33.55;16.02;;;;;;;10.88;92.39;100693.72;5085890;28;20086;-34
2022/12/06 10:17:55;;;;;;;30.45;14.45;;;;;;;10.89;91.60;100671.31;5085722;28;20055;-30
2022/12/06 10:20:43;;;;;;;30.27;16.52;;;;;;;10.96;91.99;100674.81;5069050;28;20534;-32
2022/12/06 10:23:14;;;;;;;31.08;14.88;;;;;;;11.01;90.39;100672.34;5071254;28;20109;-32
2022/12/06 10:26:01;;;;;;;44.15;26.95;;;;;;;10.66;92.62;100667.22;5071090;28;20047;-34
2022/12/06 10:28:53;;;;;;;40.33;30.13;;;;;;;11.11;91.23;100664.72;5089418;28;20059;-33
2022/12/06 10:31:25;;;;;;;28.05;14.85;;;;;;;10.88;90.29;100648.34;5065240;28;20040;-32
2022/12/06 10:33:54;;;;;;;32.40;15.88;;;;;;;10.94;89.89;100658.19;5089440;28;20054;-31
2022/12/06 10:36:53;;;;;;;37.13;26.10;;;;;;;11.05;90.33;100650.38;5089514;28;20028;-33
2022/12/06 10:39:31;;;;;;;35.95;20.17;;;;;;;11.08;90.23;100649.16;5089783;28;20651;-32
2022/12/06 10:42:03;;;;;;;43.90;30.52;;;;;;;10.86;90.90;100622.69;5070929;28;20023;-29
2022/12/06 10:44:50;;;;;;;86.40;44.15;;;;;;;11.05;91.07;100639.72;5070972;28;20028;-35
2022/12/06 10:47:22;;;;;;;46.45;31.42;;;;;;;11.05;91.08;100633.53;5071035;28;20016;-29
2022/12/06 10:49:51;;;;;;;29.00;16.45;;;;;;;11.26;88.81;100635.16;5089355;28;20036;-33
2022/12/06 10:52:19;;;;;;;;;;;;;;;11.19;88.88;100632.47;5071427;28;20532;-32
2022/12/06 10:55:09;;;;;;;39.65;22.00;;;;;;;11.22;89.13;100624.06;5089076;28;19959;-33
2022/12/06 10:57:47;;;;;;;26.48;13.38;;;;;;;11.20;88.05;100609.28;5070402;28;20040;-34
2022/12/06 11:00:20;;;;;;;24.17;10.95;;;;;;;11.03;88.33;100611.56;5070668;28;20031;-36
2022/12/06 11:03:08;;;;;;;25.63;11.48;;;;;;;11.03;88.17;100598.22;5088920;28;20060;-31
2022/12/06 11:05:40;;;;;;;58.72;44.85;;;;;;;11.07;87.80;100588.75;5088803;28;20081;-33
2022/12/06 11:08:13;;;;;;;29.65;15.30;;;;;;;11.26;86.40;100597.78;5070152;28;20119;-29
2022/12/06 11:10:42;;;;;;;27.27;12.57;;;;;;;11.10;85.98;100588.38;5088625;28;20416;-32
2022/12/06 11:13:31;;;;;;;24.27;11.75;;;;;;;11.22;85.11;100593.88;5070327;28;20066;-30
2022/12/06 11:16:08;;;;;;;28.55;13.43;;;;;;;11.18;86.33;100585.47;5070129;28;20039;-30
2022/12/06 11:18:34;;;;;;;54.30;28.77;;;;;;;11.23;88.28;100582.97;5088186;28;20094;-29
2022/12/06 11:21:17;;;;;;;35.17;17.48;;;;;;;11.17;88.36;100581.13;5088608;28;20024;-37
2022/12/06 11:23:49;;;;;;;83.93;36.58;;;;;;;11.17;88.13;100577.66;5088495;28;20032;-32
2022/12/06 11:26:29;;;;;;;45.35;24.48;;;;;;;11.08;89.46;100569.06;5088515;28;20028;-30
2022/12/06 11:29:03;;;;;;;32.03;15.98;;;;;;;11.14;86.98;100568.22;5088235;28;20035;-31
2022/12/06 11:31:47;;;;;;;31.70;16.85;;;;;;;11.21;88.97;100571.69;5087147;28;20028;-33
2022/12/06 11:34:25;;;;;;;22.67;11.07;;;;;;;11.11;86.53;100568.63;5070245;28;20028;-31
2022/12/06 11:36:53;;;;;;;23.50;11.77;;;;;;;10.90;86.69;100537.69;5069879;28;20042;-29
2022/12/06 11:39:20;;;;;;;30.25;17.13;;;;;;;11.04;86.04;100549.97;5088139;28;20060;-35
2022/12/06 11:41:53;;;;;;;21.65;9.93;;;;;;;10.81;85.51;100536.31;5087929;28;20032;-30
2022/12/06 11:44:21;;;;;;;22.95;11.20;;;;;;;10.97;86.03;100551.88;5069959;28;20043;-28
2022/12/06 11:46:54;;;;;;;21.58;11.45;;;;;;;11.17;85.70;100549.09;5087928;28;20028;-33